Terminal Aerodrome Forecast
Issued by NWS Knoxville/Tri Cities, TN

Home | Current Version | Previous Version | Text Only | Print | Product List | Glossary On
Versions: 1 2 3 4 5 6 7 8 9 10 11 12 13 14 15 16 17 18 19
000
FTUS44 KMRX 161340 AAB
TAFCHA
TAF AMD
KCHA 161340Z 1614/1712 00000KT 1/4SM FG OVC002
     FM161500 00000KT 3SM BR BKN005
     FM161600 18005KT P6SM SCT035 BKN250=

USA.gov is the U.S. government's official web portal to all federal, state and local government web resources and services.